sensor_id;sensor_type;location;lat;lon;timestamp;P1;durP1;ratioP1;P2;durP2;ratioP2
56401;SDS011;42299;35.160;26.100;2022-12-18T00:00:44;6.00;;;2.05;;
56401;SDS011;42299;35.160;26.100;2022-12-18T00:02:07;8.25;;;2.20;;
56401;SDS011;42299;35.160;26.100;2022-12-18T00:03:32;9.77;;;2.53;;
56401;SDS011;42299;35.160;26.100;2022-12-18T00:04:55;10.27;;;2.42;;
56401;SDS011;42299;35.160;26.100;2022-12-18T00:06:21;12.25;;;3.33;;
56401;SDS011;42299;35.160;26.100;2022-12-18T00:07:44;7.63;;;2.50;;
56401;SDS011;42299;35.160;26.100;2022-12-18T00:09:07;9.52;;;2.70;;
56401;SDS011;42299;35.160;26.100;2022-12-18T00:10:29;11.73;;;3.63;;
56401;SDS011;42299;35.160;26.100;2022-12-18T00:11:51;9.63;;;2.75;;
56401;SDS011;42299;35.160;26.100;2022-12-18T00:13:14;11.13;;;3.60;;
56401;SDS011;42299;35.160;26.100;2022-12-18T00:14:35;12.68;;;2.95;;
56401;SDS011;42299;35.160;26.100;2022-12-18T00:16:01;8.10;;;2.90;;
56401;SDS011;42299;35.160;26.100;2022-12-18T00:17:22;8.50;;;3.33;;
56401;SDS011;42299;35.160;26.100;2022-12-18T00:18:45;11.40;;;3.28;;
56401;SDS011;42299;35.160;26.100;2022-12-18T00:20:07;11.63;;;3.17;;
56401;SDS011;42299;35.160;26.100;2022-12-18T00:21:30;13.25;;;3.63;;
56401;SDS011;42299;35.160;26.100;2022-12-18T00:22:54;12.00;;;2.85;;
56401;SDS011;42299;35.160;26.100;2022-12-18T00:24:17;9.57;;;2.85;;
56401;SDS011;42299;35.160;26.100;2022-12-18T00:25:39;9.80;;;3.00;;
56401;SDS011;42299;35.160;26.100;2022-12-18T00:27:02;8.88;;;2.78;;
56401;SDS011;42299;35.160;26.100;2022-12-18T00:28:25;6.13;;;2.22;;
56401;SDS011;42299;35.160;26.100;2022-12-18T00:29:46;12.15;;;3.45;;
56401;SDS011;42299;35.160;26.100;2022-12-18T00:31:10;11.35;;;2.90;;
56401;SDS011;42299;35.160;26.100;2022-12-18T00:32:33;7.05;;;2.78;;
56401;SDS011;42299;35.160;26.100;2022-12-18T00:33:56;12.98;;;3.30;;
56401;SDS011;42299;35.160;26.100;2022-12-18T00:35:18;8.63;;;3.17;;
56401;SDS011;42299;35.160;26.100;2022-12-18T00:36:41;9.43;;;3.45;;
56401;SDS011;42299;35.160;26.100;2022-12-18T00:38:05;9.07;;;3.28;;
56401;SDS011;42299;35.160;26.100;2022-12-18T00:39:27;10.73;;;3.78;;
56401;SDS011;42299;35.160;26.100;2022-12-18T00:40:48;13.90;;;3.90;;
56401;SDS011;42299;35.160;26.100;2022-12-18T00:42:11;10.75;;;4.30;;
56401;SDS011;42299;35.160;26.100;2022-12-18T00:43:51;13.40;;;3.72;;
56401;SDS011;42299;35.160;26.100;2022-12-18T00:45:12;8.23;;;3.50;;
56401;SDS011;42299;35.160;26.100;2022-12-18T00:46:35;11.82;;;3.65;;
56401;SDS011;42299;35.160;26.100;2022-12-18T00:47:56;13.60;;;3.92;;
56401;SDS011;42299;35.160;26.100;2022-12-18T00:49:19;11.95;;;3.72;;
56401;SDS011;42299;35.160;26.100;2022-12-18T00:50:42;12.70;;;4.32;;
56401;SDS011;42299;35.160;26.100;2022-12-18T00:52:04;15.25;;;4.03;;
56401;SDS011;42299;35.160;26.100;2022-12-18T00:53:27;10.65;;;4.38;;
56401;SDS011;42299;35.160;26.100;2022-12-18T00:54:50;11.70;;;4.18;;
56401;SDS011;42299;35.160;26.100;2022-12-18T00:56:12;8.77;;;3.58;;
56401;SDS011;42299;35.160;26.100;2022-12-18T00:57:33;16.30;;;4.22;;
56401;SDS011;42299;35.160;26.100;2022-12-18T00:58:57;15.90;;;3.97;;
56401;SDS011;42299;35.160;26.100;2022-12-18T01:00:19;13.20;;;3.80;;
56401;SDS011;42299;35.160;26.100;2022-12-18T01:01:41;13.05;;;3.35;;
56401;SDS011;42299;35.160;26.100;2022-12-18T01:03:03;10.25;;;2.95;;
56401;SDS011;42299;35.160;26.100;2022-12-18T01:04:26;6.07;;;2.75;;
56401;SDS011;42299;35.160;26.100;2022-12-18T01:05:47;8.27;;;2.83;;
56401;SDS011;42299;35.160;26.100;2022-12-18T01:07:10;10.43;;;3.13;;
56401;SDS011;42299;35.160;26.100;2022-12-18T01:08:34;7.68;;;2.50;;
56401;SDS011;42299;35.160;26.100;2022-12-18T01:09:56;10.68;;;3.58;;
56401;SDS011;42299;35.160;26.100;2022-12-18T01:11:20;7.10;;;2.70;;
56401;SDS011;42299;35.160;26.100;2022-12-18T01:12:42;9.40;;;2.60;;
56401;SDS011;42299;35.160;26.100;2022-12-18T01:14:04;9.55;;;2.63;;
56401;SDS011;42299;35.160;26.100;2022-12-18T01:15:26;8.13;;;3.22;;
56401;SDS011;42299;35.160;26.100;2022-12-18T01:16:48;13.30;;;3.50;;
56401;SDS011;42299;35.160;26.100;2022-12-18T01:18:09;13.57;;;3.45;;
56401;SDS011;42299;35.160;26.100;2022-12-18T01:19:32;11.80;;;3.10;;
56401;SDS011;42299;35.160;26.100;2022-12-18T01:20:54;9.85;;;3.65;;
56401;SDS011;42299;35.160;26.100;2022-12-18T01:22:16;11.63;;;3.55;;
56401;SDS011;42299;35.160;26.100;2022-12-18T01:23:40;11.70;;;3.25;;
56401;SDS011;42299;35.160;26.100;2022-12-18T01:25:05;9.80;;;3.17;;
56401;SDS011;42299;35.160;26.100;2022-12-18T01:26:28;12.73;;;3.50;;
56401;SDS011;42299;35.160;26.100;2022-12-18T01:27:51;10.75;;;3.78;;
56401;SDS011;42299;35.160;26.100;2022-12-18T01:29:13;9.68;;;3.25;;
56401;SDS011;42299;35.160;26.100;2022-12-18T01:30:35;7.65;;;3.20;;
56401;SDS011;42299;35.160;26.100;2022-12-18T01:31:57;10.05;;;3.60;;
56401;SDS011;42299;35.160;26.100;2022-12-18T01:33:20;8.93;;;2.75;;
56401;SDS011;42299;35.160;26.100;2022-12-18T01:34:43;9.63;;;3.42;;
56401;SDS011;42299;35.160;26.100;2022-12-18T01:36:06;12.27;;;3.30;;
56401;SDS011;42299;35.160;26.100;2022-12-18T01:37:28;11.40;;;3.00;;
56401;SDS011;42299;35.160;26.100;2022-12-18T01:38:53;9.73;;;3.38;;
56401;SDS011;42299;35.160;26.100;2022-12-18T01:40:16;8.68;;;2.58;;
56401;SDS011;42299;35.160;26.100;2022-12-18T01:41:37;12.40;;;3.42;;
56401;SDS011;42299;35.160;26.100;2022-12-18T01:43:18;9.88;;;2.80;;
56401;SDS011;42299;35.160;26.100;2022-12-18T01:46:27;8.70;;;3.00;;
56401;SDS011;42299;35.160;26.100;2022-12-18T01:47:51;11.05;;;2.80;;
56401;SDS011;42299;35.160;26.100;2022-12-18T01:49:14;7.05;;;2.72;;
56401;SDS011;42299;35.160;26.100;2022-12-18T01:50:36;10.20;;;3.67;;
56401;SDS011;42299;35.160;26.100;2022-12-18T01:52:01;8.68;;;3.08;;
56401;SDS011;42299;35.160;26.100;2022-12-18T01:53:23;12.32;;;3.30;;
56401;SDS011;42299;35.160;26.100;2022-12-18T01:54:47;8.98;;;2.50;;
56401;SDS011;42299;35.160;26.100;2022-12-18T01:56:14;9.38;;;2.83;;
56401;SDS011;42299;35.160;26.100;2022-12-18T01:57:39;9.13;;;2.88;;
56401;SDS011;42299;35.160;26.100;2022-12-18T01:59:02;11.45;;;3.45;;
56401;SDS011;42299;35.160;26.100;2022-12-18T02:00:27;15.68;;;3.35;;
56401;SDS011;42299;35.160;26.100;2022-12-18T02:01:49;12.60;;;3.15;;
56401;SDS011;42299;35.160;26.100;2022-12-18T02:03:11;15.00;;;3.80;;
56401;SDS011;42299;35.160;26.100;2022-12-18T02:04:34;8.30;;;2.72;;
56401;SDS011;42299;35.160;26.100;2022-12-18T02:05:57;11.88;;;3.15;;
56401;SDS011;42299;35.160;26.100;2022-12-18T02:07:26;10.32;;;3.10;;
56401;SDS011;42299;35.160;26.100;2022-12-18T02:08:58;17.33;;;3.97;;
56401;SDS011;42299;35.160;26.100;2022-12-18T02:10:28;13.40;;;3.43;;
56401;SDS011;42299;35.160;26.100;2022-12-18T02:11:58;10.38;;;3.25;;
56401;SDS011;42299;35.160;26.100;2022-12-18T02:13:28;12.15;;;3.35;;
56401;SDS011;42299;35.160;26.100;2022-12-18T02:14:59;10.27;;;3.45;;
56401;SDS011;42299;35.160;26.100;2022-12-18T02:16:34;9.68;;;3.03;;
56401;SDS011;42299;35.160;26.100;2022-12-18T02:18:05;12.90;;;3.53;;
56401;SDS011;42299;35.160;26.100;2022-12-18T02:19:41;18.60;;;3.47;;
56401;SDS011;42299;35.160;26.100;2022-12-18T02:21:11;10.90;;;3.10;;
56401;SDS011;42299;35.160;26.100;2022-12-18T02:22:44;9.82;;;3.65;;
56401;SDS011;42299;35.160;26.100;2022-12-18T02:24:17;12.23;;;3.88;;
56401;SDS011;42299;35.160;26.100;2022-12-18T02:25:54;11.35;;;3.47;;
56401;SDS011;42299;35.160;26.100;2022-12-18T02:27:26;12.80;;;3.83;;
56401;SDS011;42299;35.160;26.100;2022-12-18T02:28:53;8.75;;;3.08;;
56401;SDS011;42299;35.160;26.100;2022-12-18T02:30:17;12.55;;;3.38;;
56401;SDS011;42299;35.160;26.100;2022-12-18T02:31:40;11.23;;;3.35;;
56401;SDS011;42299;35.160;26.100;2022-12-18T02:33:07;9.65;;;3.15;;
56401;SDS011;42299;35.160;26.100;2022-12-18T02:34:34;8.43;;;2.72;;
56401;SDS011;42299;35.160;26.100;2022-12-18T02:35:59;10.57;;;3.25;;
56401;SDS011;42299;35.160;26.100;2022-12-18T02:37:25;9.50;;;3.50;;
56401;SDS011;42299;35.160;26.100;2022-12-18T02:38:48;11.10;;;3.03;;
56401;SDS011;42299;35.160;26.100;2022-12-18T02:40:15;8.75;;;3.15;;
56401;SDS011;42299;35.160;26.100;2022-12-18T02:41:41;11.68;;;3.10;;
56401;SDS011;42299;35.160;26.100;2022-12-18T02:43:06;6.07;;;2.47;;
56401;SDS011;42299;35.160;26.100;2022-12-18T02:44:29;12.75;;;3.80;;
56401;SDS011;42299;35.160;26.100;2022-12-18T02:45:52;12.63;;;3.67;;
56401;SDS011;42299;35.160;26.100;2022-12-18T02:47:17;10.05;;;3.20;;
56401;SDS011;42299;35.160;26.100;2022-12-18T02:48:42;8.05;;;3.08;;
56401;SDS011;42299;35.160;26.100;2022-12-18T02:50:07;8.32;;;2.83;;
56401;SDS011;42299;35.160;26.100;2022-12-18T02:51:40;15.77;;;3.88;;
56401;SDS011;42299;35.160;26.100;2022-12-18T02:53:10;14.88;;;3.55;;
56401;SDS011;42299;35.160;26.100;2022-12-18T02:54:51;7.38;;;3.15;;
56401;SDS011;42299;35.160;26.100;2022-12-18T02:56:21;7.30;;;3.00;;
56401;SDS011;42299;35.160;26.100;2022-12-18T02:57:52;11.80;;;3.58;;
56401;SDS011;42299;35.160;26.100;2022-12-18T02:59:24;8.35;;;3.55;;
56401;SDS011;42299;35.160;26.100;2022-12-18T03:00:53;7.28;;;3.00;;
56401;SDS011;42299;35.160;26.100;2022-12-18T03:02:23;9.68;;;3.67;;
56401;SDS011;42299;35.160;26.100;2022-12-18T03:03:55;14.85;;;3.67;;
56401;SDS011;42299;35.160;26.100;2022-12-18T03:05:21;12.57;;;3.85;;
56401;SDS011;42299;35.160;26.100;2022-12-18T03:06:48;12.75;;;3.53;;
56401;SDS011;42299;35.160;26.100;2022-12-18T03:08:13;7.65;;;3.25;;
56401;SDS011;42299;35.160;26.100;2022-12-18T03:09:41;15.68;;;4.40;;
56401;SDS011;42299;35.160;26.100;2022-12-18T03:11:08;12.07;;;4.00;;
56401;SDS011;42299;35.160;26.100;2022-12-18T03:12:34;10.35;;;2.92;;
56401;SDS011;42299;35.160;26.100;2022-12-18T03:14:00;12.07;;;4.35;;
56401;SDS011;42299;35.160;26.100;2022-12-18T03:15:25;11.35;;;3.83;;
56401;SDS011;42299;35.160;26.100;2022-12-18T03:17:02;13.90;;;4.13;;
56401;SDS011;42299;35.160;26.100;2022-12-18T03:18:27;9.05;;;3.65;;
56401;SDS011;42299;35.160;26.100;2022-12-18T03:19:54;15.07;;;3.53;;
56401;SDS011;42299;35.160;26.100;2022-12-18T03:21:19;9.05;;;3.78;;
56401;SDS011;42299;35.160;26.100;2022-12-18T03:22:46;9.60;;;3.47;;
56401;SDS011;42299;35.160;26.100;2022-12-18T03:24:12;15.35;;;3.80;;
56401;SDS011;42299;35.160;26.100;2022-12-18T03:25:38;13.50;;;3.90;;
56401;SDS011;42299;35.160;26.100;2022-12-18T03:27:03;11.43;;;4.07;;
56401;SDS011;42299;35.160;26.100;2022-12-18T03:28:28;12.50;;;3.40;;
56401;SDS011;42299;35.160;26.100;2022-12-18T03:30:00;11.95;;;4.07;;
56401;SDS011;42299;35.160;26.100;2022-12-18T03:31:29;13.52;;;4.40;;
56401;SDS011;42299;35.160;26.100;2022-12-18T03:32:58;10.98;;;3.15;;
56401;SDS011;42299;35.160;26.100;2022-12-18T03:34:29;11.30;;;3.53;;
56401;SDS011;42299;35.160;26.100;2022-12-18T03:35:56;12.77;;;3.78;;
56401;SDS011;42299;35.160;26.100;2022-12-18T03:37:18;13.25;;;3.22;;
56401;SDS011;42299;35.160;26.100;2022-12-18T03:38:40;11.68;;;3.20;;
56401;SDS011;42299;35.160;26.100;2022-12-18T03:40:04;15.85;;;3.85;;
56401;SDS011;42299;35.160;26.100;2022-12-18T03:41:28;9.07;;;2.92;;
56401;SDS011;42299;35.160;26.100;2022-12-18T03:43:19;13.77;;;3.38;;
56401;SDS011;42299;35.160;26.100;2022-12-18T03:44:51;13.27;;;3.80;;
56401;SDS011;42299;35.160;26.100;2022-12-18T03:46:24;10.85;;;3.35;;
56401;SDS011;42299;35.160;26.100;2022-12-18T03:47:53;9.88;;;3.30;;
56401;SDS011;42299;35.160;26.100;2022-12-18T03:49:27;11.20;;;3.72;;
56401;SDS011;42299;35.160;26.100;2022-12-18T03:50:59;9.63;;;3.78;;
56401;SDS011;42299;35.160;26.100;2022-12-18T03:52:26;8.77;;;3.45;;
56401;SDS011;42299;35.160;26.100;2022-12-18T03:53:52;10.95;;;3.65;;
56401;SDS011;42299;35.160;26.100;2022-12-18T03:55:24;10.00;;;3.72;;
56401;SDS011;42299;35.160;26.100;2022-12-18T03:56:55;8.38;;;3.80;;
56401;SDS011;42299;35.160;26.100;2022-12-18T03:58:20;14.07;;;3.88;;
56401;SDS011;42299;35.160;26.100;2022-12-18T03:59:55;6.47;;;3.05;;
56401;SDS011;42299;35.160;26.100;2022-12-18T04:01:37;10.43;;;3.15;;
56401;SDS011;42299;35.160;26.100;2022-12-18T04:03:04;14.07;;;3.50;;
56401;SDS011;42299;35.160;26.100;2022-12-18T04:04:33;8.75;;;3.25;;
56401;SDS011;42299;35.160;26.100;2022-12-18T04:05:58;11.13;;;3.67;;
56401;SDS011;42299;35.160;26.100;2022-12-18T04:07:21;9.60;;;3.30;;
56401;SDS011;42299;35.160;26.100;2022-12-18T04:08:45;11.65;;;4.18;;
56401;SDS011;42299;35.160;26.100;2022-12-18T04:10:11;11.40;;;3.65;;
56401;SDS011;42299;35.160;26.100;2022-12-18T04:11:35;9.00;;;3.15;;
56401;SDS011;42299;35.160;26.100;2022-12-18T04:12:59;12.70;;;4.50;;
56401;SDS011;42299;35.160;26.100;2022-12-18T04:14:21;20.38;;;8.93;;
56401;SDS011;42299;35.160;26.100;2022-12-18T04:15:47;24.20;;;12.00;;
56401;SDS011;42299;35.160;26.100;2022-12-18T04:18:33;24.80;;;17.55;;
56401;SDS011;42299;35.160;26.100;2022-12-18T04:19:55;28.23;;;20.45;;
56401;SDS011;42299;35.160;26.100;2022-12-18T04:21:19;28.67;;;21.42;;
56401;SDS011;42299;35.160;26.100;2022-12-18T04:22:41;33.15;;;26.20;;
56401;SDS011;42299;35.160;26.100;2022-12-18T04:24:04;44.28;;;38.10;;
56401;SDS011;42299;35.160;26.100;2022-12-18T04:25:27;33.42;;;29.73;;
56401;SDS011;42299;35.160;26.100;2022-12-18T04:27:05;29.52;;;26.42;;
56401;SDS011;42299;35.160;26.100;2022-12-18T04:28:35;23.13;;;19.17;;
56401;SDS011;42299;35.160;26.100;2022-12-18T04:29:58;28.27;;;20.83;;
56401;SDS011;42299;35.160;26.100;2022-12-18T04:31:21;31.38;;;23.38;;
56401;SDS011;42299;35.160;26.100;2022-12-18T04:32:46;29.58;;;22.65;;
56401;SDS011;42299;35.160;26.100;2022-12-18T04:34:07;30.60;;;19.77;;
56401;SDS011;42299;35.160;26.100;2022-12-18T04:35:35;21.05;;;16.85;;
56401;SDS011;42299;35.160;26.100;2022-12-18T04:36:56;22.20;;;16.33;;
56401;SDS011;42299;35.160;26.100;2022-12-18T04:38:19;39.45;;;30.05;;
56401;SDS011;42299;35.160;26.100;2022-12-18T04:39:50;37.00;;;30.88;;
56401;SDS011;42299;35.160;26.100;2022-12-18T04:41:23;40.70;;;34.47;;
56401;SDS011;42299;35.160;26.100;2022-12-18T04:42:47;47.67;;;41.45;;
56401;SDS011;42299;35.160;26.100;2022-12-18T04:44:08;44.95;;;37.03;;
56401;SDS011;42299;35.160;26.100;2022-12-18T04:45:31;58.08;;;43.55;;
56401;SDS011;42299;35.160;26.100;2022-12-18T04:51:00;61.67;;;55.00;;
56401;SDS011;42299;35.160;26.100;2022-12-18T04:52:22;108.57;;;93.53;;
56401;SDS011;42299;35.160;26.100;2022-12-18T04:53:44;111.03;;;95.30;;
56401;SDS011;42299;35.160;26.100;2022-12-18T04:55:06;68.90;;;54.50;;
56401;SDS011;42299;35.160;26.100;2022-12-18T04:56:30;42.75;;;34.40;;
56401;SDS011;42299;35.160;26.100;2022-12-18T04:57:53;37.85;;;29.73;;
56401;SDS011;42299;35.160;26.100;2022-12-18T04:59:14;30.30;;;22.10;;
56401;SDS011;42299;35.160;26.100;2022-12-18T05:00:37;48.17;;;40.33;;
56401;SDS011;42299;35.160;26.100;2022-12-18T05:01:58;79.47;;;58.35;;
56401;SDS011;42299;35.160;26.100;2022-12-18T05:03:22;56.80;;;42.40;;
56401;SDS011;42299;35.160;26.100;2022-12-18T05:04:43;57.90;;;45.17;;
56401;SDS011;42299;35.160;26.100;2022-12-18T05:06:06;65.28;;;57.75;;
56401;SDS011;42299;35.160;26.100;2022-12-18T05:07:28;82.53;;;71.50;;
56401;SDS011;42299;35.160;26.100;2022-12-18T05:08:50;82.93;;;72.93;;
56401;SDS011;42299;35.160;26.100;2022-12-18T05:10:11;86.28;;;76.95;;
56401;SDS011;42299;35.160;26.100;2022-12-18T05:11:36;80.20;;;69.93;;
56401;SDS011;42299;35.160;26.100;2022-12-18T05:12:59;73.30;;;61.03;;
56401;SDS011;42299;35.160;26.100;2022-12-18T05:14:20;39.38;;;32.22;;
56401;SDS011;42299;35.160;26.100;2022-12-18T05:15:43;38.00;;;32.25;;
56401;SDS011;42299;35.160;26.100;2022-12-18T05:17:12;39.70;;;30.95;;
56401;SDS011;42299;35.160;26.100;2022-12-18T05:18:36;25.63;;;18.73;;
56401;SDS011;42299;35.160;26.100;2022-12-18T05:19:58;32.72;;;20.63;;
56401;SDS011;42299;35.160;26.100;2022-12-18T05:21:20;54.40;;;47.92;;
56401;SDS011;42299;35.160;26.100;2022-12-18T05:22:42;67.57;;;60.30;;
56401;SDS011;42299;35.160;26.100;2022-12-18T05:24:04;65.35;;;58.00;;
56401;SDS011;42299;35.160;26.100;2022-12-18T05:25:26;53.92;;;48.17;;
56401;SDS011;42299;35.160;26.100;2022-12-18T05:26:48;70.47;;;62.78;;
56401;SDS011;42299;35.160;26.100;2022-12-18T05:28:11;68.30;;;59.78;;
56401;SDS011;42299;35.160;26.100;2022-12-18T05:29:32;73.25;;;65.35;;
56401;SDS011;42299;35.160;26.100;2022-12-18T05:30:55;124.30;;;111.00;;
56401;SDS011;42299;35.160;26.100;2022-12-18T05:32:18;123.40;;;110.38;;
56401;SDS011;42299;35.160;26.100;2022-12-18T05:33:42;95.88;;;85.85;;
56401;SDS011;42299;35.160;26.100;2022-12-18T05:35:06;76.93;;;67.70;;
56401;SDS011;42299;35.160;26.100;2022-12-18T05:36:28;96.53;;;86.55;;
56401;SDS011;42299;35.160;26.100;2022-12-18T05:37:51;110.78;;;98.90;;
56401;SDS011;42299;35.160;26.100;2022-12-18T05:39:12;103.97;;;92.88;;
56401;SDS011;42299;35.160;26.100;2022-12-18T05:40:35;95.57;;;85.43;;
56401;SDS011;42299;35.160;26.100;2022-12-18T05:41:57;95.03;;;85.28;;
56401;SDS011;42299;35.160;26.100;2022-12-18T05:43:19;124.35;;;111.38;;
56401;SDS011;42299;35.160;26.100;2022-12-18T05:44:42;64.53;;;57.50;;
56401;SDS011;42299;35.160;26.100;2022-12-18T05:46:05;67.03;;;60.10;;
56401;SDS011;42299;35.160;26.100;2022-12-18T05:47:28;110.07;;;98.00;;
56401;SDS011;42299;35.160;26.100;2022-12-18T05:48:52;82.72;;;73.82;;
56401;SDS011;42299;35.160;26.100;2022-12-18T05:50:15;83.68;;;74.95;;
56401;SDS011;42299;35.160;26.100;2022-12-18T05:51:37;118.10;;;105.55;;
56401;SDS011;42299;35.160;26.100;2022-12-18T05:52:58;80.50;;;71.80;;
56401;SDS011;42299;35.160;26.100;2022-12-18T05:54:21;72.63;;;64.38;;
56401;SDS011;42299;35.160;26.100;2022-12-18T05:55:43;214.38;;;191.55;;
56401;SDS011;42299;35.160;26.100;2022-12-18T05:57:05;191.05;;;171.00;;
56401;SDS011;42299;35.160;26.100;2022-12-18T05:58:28;157.93;;;141.45;;
56401;SDS011;42299;35.160;26.100;2022-12-18T06:01:12;133.40;;;119.65;;
56401;SDS011;42299;35.160;26.100;2022-12-18T06:02:37;111.38;;;99.90;;
56401;SDS011;42299;35.160;26.100;2022-12-18T06:04:00;118.20;;;105.90;;
56401;SDS011;42299;35.160;26.100;2022-12-18T06:05:22;84.40;;;75.53;;
56401;SDS011;42299;35.160;26.100;2022-12-18T06:06:44;66.80;;;57.22;;
56401;SDS011;42299;35.160;26.100;2022-12-18T06:08:06;68.00;;;59.90;;
56401;SDS011;42299;35.160;26.100;2022-12-18T06:09:28;68.95;;;60.20;;
56401;SDS011;42299;35.160;26.100;2022-12-18T06:10:52;109.53;;;98.43;;
56401;SDS011;42299;35.160;26.100;2022-12-18T06:12:14;118.47;;;106.38;;
56401;SDS011;42299;35.160;26.100;2022-12-18T06:13:39;111.93;;;99.82;;
56401;SDS011;42299;35.160;26.100;2022-12-18T06:15:00;114.63;;;102.53;;
56401;SDS011;42299;35.160;26.100;2022-12-18T06:16:22;107.63;;;95.90;;
56401;SDS011;42299;35.160;26.100;2022-12-18T06:17:43;83.93;;;72.70;;
56401;SDS011;42299;35.160;26.100;2022-12-18T06:19:07;91.88;;;82.07;;
56401;SDS011;42299;35.160;26.100;2022-12-18T06:20:31;84.75;;;75.63;;
56401;SDS011;42299;35.160;26.100;2022-12-18T06:21:54;74.85;;;66.72;;
56401;SDS011;42299;35.160;26.100;2022-12-18T06:23:18;70.47;;;63.15;;
56401;SDS011;42299;35.160;26.100;2022-12-18T06:24:40;54.78;;;48.85;;
56401;SDS011;42299;35.160;26.100;2022-12-18T06:26:05;48.78;;;40.85;;
56401;SDS011;42299;35.160;26.100;2022-12-18T06:27:27;39.65;;;35.35;;
56401;SDS011;42299;35.160;26.100;2022-12-18T06:28:49;35.70;;;30.90;;
56401;SDS011;42299;35.160;26.100;2022-12-18T06:30:11;37.25;;;30.08;;
56401;SDS011;42299;35.160;26.100;2022-12-18T06:31:34;28.20;;;21.90;;
56401;SDS011;42299;35.160;26.100;2022-12-18T06:32:56;28.90;;;24.05;;
56401;SDS011;42299;35.160;26.100;2022-12-18T06:34:19;23.40;;;19.20;;
56401;SDS011;42299;35.160;26.100;2022-12-18T06:35:44;29.02;;;21.20;;
56401;SDS011;42299;35.160;26.100;2022-12-18T06:37:05;29.65;;;24.15;;
56401;SDS011;42299;35.160;26.100;2022-12-18T06:38:28;15.30;;;8.45;;
56401;SDS011;42299;35.160;26.100;2022-12-18T06:39:51;14.80;;;7.93;;
56401;SDS011;42299;35.160;26.100;2022-12-18T06:41:14;13.38;;;5.28;;
56401;SDS011;42299;35.160;26.100;2022-12-18T06:42:38;8.73;;;3.80;;
56401;SDS011;42299;35.160;26.100;2022-12-18T06:44:00;10.48;;;4.07;;
56401;SDS011;42299;35.160;26.100;2022-12-18T06:45:21;10.98;;;3.05;;
56401;SDS011;42299;35.160;26.100;2022-12-18T06:46:44;9.63;;;4.57;;
56401;SDS011;42299;35.160;26.100;2022-12-18T06:48:06;8.93;;;3.60;;
56401;SDS011;42299;35.160;26.100;2022-12-18T06:49:29;13.25;;;5.63;;
56401;SDS011;42299;35.160;26.100;2022-12-18T06:50:50;14.43;;;9.38;;
56401;SDS011;42299;35.160;26.100;2022-12-18T06:52:16;21.88;;;13.73;;
56401;SDS011;42299;35.160;26.100;2022-12-18T06:53:39;21.50;;;18.50;;
56401;SDS011;42299;35.160;26.100;2022-12-18T06:55:00;19.52;;;12.70;;
56401;SDS011;42299;35.160;26.100;2022-12-18T06:56:23;19.85;;;14.35;;
56401;SDS011;42299;35.160;26.100;2022-12-18T06:57:44;18.98;;;10.43;;
56401;SDS011;42299;35.160;26.100;2022-12-18T06:59:07;11.40;;;5.72;;
56401;SDS011;42299;35.160;26.100;2022-12-18T07:00:29;11.77;;;6.35;;
56401;SDS011;42299;35.160;26.100;2022-12-18T07:01:51;12.45;;;6.60;;
56401;SDS011;42299;35.160;26.100;2022-12-18T07:03:14;11.57;;;5.35;;
56401;SDS011;42299;35.160;26.100;2022-12-18T07:04:40;13.18;;;4.70;;
56401;SDS011;42299;35.160;26.100;2022-12-18T07:06:02;10.93;;;2.90;;
56401;SDS011;42299;35.160;26.100;2022-12-18T07:07:24;10.85;;;2.78;;
56401;SDS011;42299;35.160;26.100;2022-12-18T07:08:47;9.75;;;1.85;;
56401;SDS011;42299;35.160;26.100;2022-12-18T07:10:11;7.43;;;2.30;;
56401;SDS011;42299;35.160;26.100;2022-12-18T07:11:32;8.45;;;2.13;;
56401;SDS011;42299;35.160;26.100;2022-12-18T07:12:54;6.18;;;1.90;;
56401;SDS011;42299;35.160;26.100;2022-12-18T07:14:16;5.70;;;1.90;;
56401;SDS011;42299;35.160;26.100;2022-12-18T07:15:38;4.88;;;1.80;;
56401;SDS011;42299;35.160;26.100;2022-12-18T07:17:00;10.68;;;2.10;;
56401;SDS011;42299;35.160;26.100;2022-12-18T07:18:22;5.15;;;1.50;;
56401;SDS011;42299;35.160;26.100;2022-12-18T07:19:46;6.60;;;1.75;;
56401;SDS011;42299;35.160;26.100;2022-12-18T07:21:08;7.05;;;3.40;;
56401;SDS011;42299;35.160;26.100;2022-12-18T07:22:32;18.10;;;13.38;;
56401;SDS011;42299;35.160;26.100;2022-12-18T07:23:54;24.42;;;19.13;;
56401;SDS011;42299;35.160;26.100;2022-12-18T07:25:20;31.88;;;24.98;;
56401;SDS011;42299;35.160;26.100;2022-12-18T07:26:42;26.30;;;20.58;;
56401;SDS011;42299;35.160;26.100;2022-12-18T07:28:06;20.02;;;14.85;;
56401;SDS011;42299;35.160;26.100;2022-12-18T07:29:29;15.93;;;8.00;;
56401;SDS011;42299;35.160;26.100;2022-12-18T07:30:50;16.73;;;12.02;;
56401;SDS011;42299;35.160;26.100;2022-12-18T07:32:12;15.80;;;11.77;;
56401;SDS011;42299;35.160;26.100;2022-12-18T07:33:35;10.35;;;7.38;;
56401;SDS011;42299;35.160;26.100;2022-12-18T07:34:58;12.60;;;5.47;;
56401;SDS011;42299;35.160;26.100;2022-12-18T07:36:23;11.57;;;3.72;;
56401;SDS011;42299;35.160;26.100;2022-12-18T07:37:45;21.83;;;10.50;;
56401;SDS011;42299;35.160;26.100;2022-12-18T07:39:07;16.77;;;10.30;;
56401;SDS011;42299;35.160;26.100;2022-12-18T07:40:30;11.15;;;6.30;;
56401;SDS011;42299;35.160;26.100;2022-12-18T07:41:52;10.18;;;7.10;;
56401;SDS011;42299;35.160;26.100;2022-12-18T07:43:28;13.55;;;5.80;;
56401;SDS011;42299;35.160;26.100;2022-12-18T07:44:51;10.45;;;4.45;;
56401;SDS011;42299;35.160;26.100;2022-12-18T07:46:13;11.50;;;5.25;;
56401;SDS011;42299;35.160;26.100;2022-12-18T07:47:37;6.63;;;1.90;;
56401;SDS011;42299;35.160;26.100;2022-12-18T07:49:01;7.70;;;1.77;;
56401;SDS011;42299;35.160;26.100;2022-12-18T07:50:25;8.02;;;1.70;;
56401;SDS011;42299;35.160;26.100;2022-12-18T07:51:48;4.80;;;1.70;;
56401;SDS011;42299;35.160;26.100;2022-12-18T07:53:09;4.50;;;1.40;;
56401;SDS011;42299;35.160;26.100;2022-12-18T07:54:31;7.97;;;1.50;;
56401;SDS011;42299;35.160;26.100;2022-12-18T07:55:55;5.65;;;1.80;;
56401;SDS011;42299;35.160;26.100;2022-12-18T07:57:17;2.72;;;0.90;;
56401;SDS011;42299;35.160;26.100;2022-12-18T07:58:39;9.32;;;1.88;;
56401;SDS011;42299;35.160;26.100;2022-12-18T08:00:02;5.43;;;1.52;;
56401;SDS011;42299;35.160;26.100;2022-12-18T08:01:32;3.35;;;1.08;;
56401;SDS011;42299;35.160;26.100;2022-12-18T08:02:56;6.50;;;1.42;;
56401;SDS011;42299;35.160;26.100;2022-12-18T08:04:19;4.60;;;1.38;;
56401;SDS011;42299;35.160;26.100;2022-12-18T08:05:43;3.15;;;1.08;;
56401;SDS011;42299;35.160;26.100;2022-12-18T08:07:05;5.15;;;1.42;;
56401;SDS011;42299;35.160;26.100;2022-12-18T08:08:28;6.97;;;1.48;;
56401;SDS011;42299;35.160;26.100;2022-12-18T08:12:34;5.00;;;1.60;;
56401;SDS011;42299;35.160;26.100;2022-12-18T08:13:57;8.07;;;2.95;;
56401;SDS011;42299;35.160;26.100;2022-12-18T08:15:20;7.88;;;2.15;;
56401;SDS011;42299;35.160;26.100;2022-12-18T08:16:41;6.28;;;1.73;;
56401;SDS011;42299;35.160;26.100;2022-12-18T08:18:03;10.63;;;3.35;;
56401;SDS011;42299;35.160;26.100;2022-12-18T08:19:26;7.60;;;1.17;;
56401;SDS011;42299;35.160;26.100;2022-12-18T08:20:50;6.63;;;1.30;;
56401;SDS011;42299;35.160;26.100;2022-12-18T08:22:13;3.78;;;1.20;;
56401;SDS011;42299;35.160;26.100;2022-12-18T08:23:35;3.75;;;0.95;;
56401;SDS011;42299;35.160;26.100;2022-12-18T08:24:58;8.65;;;1.35;;